sensor_id;sensor_type;location;lat;lon;timestamp;P1;durP1;ratioP1;P2;durP2;ratioP2
59824;SDS011;45703;50.898;6.054;2023-04-24T00:01:45;6.30;;;2.10;;
59824;SDS011;45703;50.898;6.054;2023-04-24T00:04:10;6.93;;;1.85;;
59824;SDS011;45703;50.898;6.054;2023-04-24T00:06:36;7.82;;;2.55;;
59824;SDS011;45703;50.898;6.054;2023-04-24T00:09:03;6.68;;;2.17;;
59824;SDS011;45703;50.898;6.054;2023-04-24T00:11:28;5.93;;;2.40;;
59824;SDS011;45703;50.898;6.054;2023-04-24T00:13:55;6.82;;;2.70;;
59824;SDS011;45703;50.898;6.054;2023-04-24T00:16:21;6.82;;;2.72;;
59824;SDS011;45703;50.898;6.054;2023-04-24T00:18:47;7.55;;;2.60;;
59824;SDS011;45703;50.898;6.054;2023-04-24T00:21:17;8.90;;;3.20;;
59824;SDS011;45703;50.898;6.054;2023-04-24T00:23:43;8.52;;;3.15;;
59824;SDS011;45703;50.898;6.054;2023-04-24T00:26:09;8.73;;;3.75;;
59824;SDS011;45703;50.898;6.054;2023-04-24T00:28:35;8.23;;;3.80;;
59824;SDS011;45703;50.898;6.054;2023-04-24T00:31:00;7.95;;;3.35;;
59824;SDS011;45703;50.898;6.054;2023-04-24T00:33:26;7.43;;;3.42;;
59824;SDS011;45703;50.898;6.054;2023-04-24T00:35:52;7.88;;;3.60;;
59824;SDS011;45703;50.898;6.054;2023-04-24T00:38:17;8.80;;;3.63;;
59824;SDS011;45703;50.898;6.054;2023-04-24T00:40:43;9.07;;;3.60;;
59824;SDS011;45703;50.898;6.054;2023-04-24T00:43:08;9.57;;;4.32;;
59824;SDS011;45703;50.898;6.054;2023-04-24T00:45:34;9.35;;;4.60;;
59824;SDS011;45703;50.898;6.054;2023-04-24T00:48:01;12.18;;;5.05;;
59824;SDS011;45703;50.898;6.054;2023-04-24T00:50:27;12.45;;;4.80;;
59824;SDS011;45703;50.898;6.054;2023-04-24T00:52:53;10.70;;;5.10;;
59824;SDS011;45703;50.898;6.054;2023-04-24T00:55:19;10.88;;;5.43;;
59824;SDS011;45703;50.898;6.054;2023-04-24T00:57:45;10.80;;;5.63;;
59824;SDS011;45703;50.898;6.054;2023-04-24T01:00:12;11.02;;;5.00;;
59824;SDS011;45703;50.898;6.054;2023-04-24T01:02:39;9.82;;;5.20;;
59824;SDS011;45703;50.898;6.054;2023-04-24T01:05:08;10.68;;;5.10;;
59824;SDS011;45703;50.898;6.054;2023-04-24T01:07:34;11.13;;;5.43;;
59824;SDS011;45703;50.898;6.054;2023-04-24T01:10:00;12.07;;;6.03;;
59824;SDS011;45703;50.898;6.054;2023-04-24T01:12:26;11.88;;;5.57;;
59824;SDS011;45703;50.898;6.054;2023-04-24T01:14:51;10.98;;;5.95;;
59824;SDS011;45703;50.898;6.054;2023-04-24T01:17:17;11.13;;;6.03;;
59824;SDS011;45703;50.898;6.054;2023-04-24T01:19:42;10.07;;;5.60;;
59824;SDS011;45703;50.898;6.054;2023-04-24T01:22:12;11.85;;;5.50;;
59824;SDS011;45703;50.898;6.054;2023-04-24T01:24:39;12.05;;;6.28;;
59824;SDS011;45703;50.898;6.054;2023-04-24T01:27:06;11.68;;;6.40;;
59824;SDS011;45703;50.898;6.054;2023-04-24T01:29:32;11.50;;;6.20;;
59824;SDS011;45703;50.898;6.054;2023-04-24T01:31:57;10.85;;;6.05;;
59824;SDS011;45703;50.898;6.054;2023-04-24T01:34:23;10.95;;;5.72;;
59824;SDS011;45703;50.898;6.054;2023-04-24T01:36:49;12.45;;;6.13;;
59824;SDS011;45703;50.898;6.054;2023-04-24T01:39:15;14.32;;;6.63;;
59824;SDS011;45703;50.898;6.054;2023-04-24T01:41:41;13.55;;;6.22;;
59824;SDS011;45703;50.898;6.054;2023-04-24T01:44:07;11.93;;;5.93;;
59824;SDS011;45703;50.898;6.054;2023-04-24T01:46:33;12.68;;;6.30;;
59824;SDS011;45703;50.898;6.054;2023-04-24T01:48:59;12.15;;;6.63;;
59824;SDS011;45703;50.898;6.054;2023-04-24T01:51:25;10.80;;;6.13;;
59824;SDS011;45703;50.898;6.054;2023-04-24T01:53:51;10.55;;;5.45;;
59824;SDS011;45703;50.898;6.054;2023-04-24T01:56:18;10.13;;;5.63;;
59824;SDS011;45703;50.898;6.054;2023-04-24T01:58:47;11.25;;;5.97;;
59824;SDS011;45703;50.898;6.054;2023-04-24T02:01:17;14.25;;;6.82;;
59824;SDS011;45703;50.898;6.054;2023-04-24T02:03:43;13.27;;;5.78;;
59824;SDS011;45703;50.898;6.054;2023-04-24T02:06:09;10.32;;;5.97;;
59824;SDS011;45703;50.898;6.054;2023-04-24T02:08:34;11.52;;;5.72;;
59824;SDS011;45703;50.898;6.054;2023-04-24T02:11:00;10.88;;;6.05;;
59824;SDS011;45703;50.898;6.054;2023-04-24T02:13:27;11.98;;;5.50;;
59824;SDS011;45703;50.898;6.054;2023-04-24T02:15:52;13.18;;;6.57;;
59824;SDS011;45703;50.898;6.054;2023-04-24T02:18:17;13.73;;;6.32;;
59824;SDS011;45703;50.898;6.054;2023-04-24T02:20:43;12.13;;;6.50;;
59824;SDS011;45703;50.898;6.054;2023-04-24T02:23:08;15.13;;;7.18;;
59824;SDS011;45703;50.898;6.054;2023-04-24T02:25:34;13.55;;;6.15;;
59824;SDS011;45703;50.898;6.054;2023-04-24T02:27:59;11.85;;;6.63;;
59824;SDS011;45703;50.898;6.054;2023-04-24T02:30:24;12.95;;;6.70;;
59824;SDS011;45703;50.898;6.054;2023-04-24T02:32:50;11.50;;;6.18;;
59824;SDS011;45703;50.898;6.054;2023-04-24T02:35:16;12.20;;;7.10;;
59824;SDS011;45703;50.898;6.054;2023-04-24T02:37:42;12.43;;;6.28;;
59824;SDS011;45703;50.898;6.054;2023-04-24T02:40:07;17.23;;;7.25;;
59824;SDS011;45703;50.898;6.054;2023-04-24T02:42:34;10.88;;;5.88;;
59824;SDS011;45703;50.898;6.054;2023-04-24T02:44:59;13.02;;;6.72;;
59824;SDS011;45703;50.898;6.054;2023-04-24T02:47:25;11.95;;;6.70;;
59824;SDS011;45703;50.898;6.054;2023-04-24T02:49:50;13.23;;;6.03;;
59824;SDS011;45703;50.898;6.054;2023-04-24T02:52:16;14.90;;;6.72;;
59824;SDS011;45703;50.898;6.054;2023-04-24T02:54:41;12.20;;;6.53;;
59824;SDS011;45703;50.898;6.054;2023-04-24T02:57:07;11.23;;;6.57;;
59824;SDS011;45703;50.898;6.054;2023-04-24T02:59:33;12.48;;;6.45;;
59824;SDS011;45703;50.898;6.054;2023-04-24T03:01:58;12.25;;;6.70;;
59824;SDS011;45703;50.898;6.054;2023-04-24T03:04:24;12.20;;;6.35;;
59824;SDS011;45703;50.898;6.054;2023-04-24T03:06:50;11.50;;;6.72;;
59824;SDS011;45703;50.898;6.054;2023-04-24T03:09:17;13.80;;;6.82;;
59824;SDS011;45703;50.898;6.054;2023-04-24T03:11:43;14.68;;;7.43;;
59824;SDS011;45703;50.898;6.054;2023-04-24T03:14:09;12.35;;;6.93;;
59824;SDS011;45703;50.898;6.054;2023-04-24T03:16:34;13.80;;;6.55;;
59824;SDS011;45703;50.898;6.054;2023-04-24T03:19:00;12.85;;;6.22;;
59824;SDS011;45703;50.898;6.054;2023-04-24T03:21:25;12.13;;;6.82;;
59824;SDS011;45703;50.898;6.054;2023-04-24T03:23:51;12.93;;;6.65;;
59824;SDS011;45703;50.898;6.054;2023-04-24T03:26:17;12.55;;;6.30;;
59824;SDS011;45703;50.898;6.054;2023-04-24T03:28:42;12.35;;;6.53;;
59824;SDS011;45703;50.898;6.054;2023-04-24T03:31:10;11.85;;;6.70;;
59824;SDS011;45703;50.898;6.054;2023-04-24T03:33:36;13.88;;;6.38;;
59824;SDS011;45703;50.898;6.054;2023-04-24T03:36:01;13.93;;;6.97;;
59824;SDS011;45703;50.898;6.054;2023-04-24T03:38:27;12.00;;;6.38;;
59824;SDS011;45703;50.898;6.054;2023-04-24T03:40:52;10.63;;;5.72;;
59824;SDS011;45703;50.898;6.054;2023-04-24T03:43:17;13.48;;;6.25;;
59824;SDS011;45703;50.898;6.054;2023-04-24T03:45:43;12.32;;;6.95;;
59824;SDS011;45703;50.898;6.054;2023-04-24T03:48:08;13.15;;;6.35;;
59824;SDS011;45703;50.898;6.054;2023-04-24T03:50:34;11.00;;;6.00;;
59824;SDS011;45703;50.898;6.054;2023-04-24T03:52:59;13.02;;;6.05;;
59824;SDS011;45703;50.898;6.054;2023-04-24T03:55:25;10.45;;;5.82;;
59824;SDS011;45703;50.898;6.054;2023-04-24T03:57:50;10.45;;;5.82;;
59824;SDS011;45703;50.898;6.054;2023-04-24T04:00:16;11.32;;;5.97;;
59824;SDS011;45703;50.898;6.054;2023-04-24T04:02:41;11.10;;;6.32;;
59824;SDS011;45703;50.898;6.054;2023-04-24T04:05:06;12.60;;;6.53;;
59824;SDS011;45703;50.898;6.054;2023-04-24T04:07:33;12.20;;;6.25;;
59824;SDS011;45703;50.898;6.054;2023-04-24T04:09:58;11.15;;;5.57;;
59824;SDS011;45703;50.898;6.054;2023-04-24T04:12:24;11.15;;;5.95;;
59824;SDS011;45703;50.898;6.054;2023-04-24T04:14:49;10.48;;;5.60;;
59824;SDS011;45703;50.898;6.054;2023-04-24T04:17:15;11.82;;;6.13;;
59824;SDS011;45703;50.898;6.054;2023-04-24T04:19:40;13.02;;;6.25;;
59824;SDS011;45703;50.898;6.054;2023-04-24T04:22:06;12.45;;;6.25;;
59824;SDS011;45703;50.898;6.054;2023-04-24T04:24:33;10.65;;;6.00;;
59824;SDS011;45703;50.898;6.054;2023-04-24T04:26:58;10.95;;;5.13;;
59824;SDS011;45703;50.898;6.054;2023-04-24T04:29:25;10.60;;;5.65;;
59824;SDS011;45703;50.898;6.054;2023-04-24T04:31:50;11.65;;;6.38;;
59824;SDS011;45703;50.898;6.054;2023-04-24T04:34:16;10.55;;;5.72;;
59824;SDS011;45703;50.898;6.054;2023-04-24T04:36:41;10.90;;;5.63;;
59824;SDS011;45703;50.898;6.054;2023-04-24T04:39:07;12.60;;;5.75;;
59824;SDS011;45703;50.898;6.054;2023-04-24T04:41:33;11.57;;;6.30;;
59824;SDS011;45703;50.898;6.054;2023-04-24T04:44:00;10.55;;;5.43;;
59824;SDS011;45703;50.898;6.054;2023-04-24T04:46:26;10.93;;;5.68;;
59824;SDS011;45703;50.898;6.054;2023-04-24T04:48:52;10.48;;;5.40;;
59824;SDS011;45703;50.898;6.054;2023-04-24T04:51:18;11.38;;;5.63;;
59824;SDS011;45703;50.898;6.054;2023-04-24T04:53:43;11.38;;;5.70;;
59824;SDS011;45703;50.898;6.054;2023-04-24T04:56:08;12.35;;;5.70;;
59824;SDS011;45703;50.898;6.054;2023-04-24T04:58:34;9.70;;;5.47;;
59824;SDS011;45703;50.898;6.054;2023-04-24T05:00:59;11.35;;;5.40;;
59824;SDS011;45703;50.898;6.054;2023-04-24T05:03:25;12.70;;;5.28;;
59824;SDS011;45703;50.898;6.054;2023-04-24T05:05:50;10.35;;;5.05;;
59824;SDS011;45703;50.898;6.054;2023-04-24T05:08:16;10.02;;;5.03;;
59824;SDS011;45703;50.898;6.054;2023-04-24T05:10:41;10.40;;;5.10;;
59824;SDS011;45703;50.898;6.054;2023-04-24T05:13:06;10.30;;;5.32;;
59824;SDS011;45703;50.898;6.054;2023-04-24T05:15:32;9.68;;;4.97;;
59824;SDS011;45703;50.898;6.054;2023-04-24T05:17:57;11.38;;;5.03;;
59824;SDS011;45703;50.898;6.054;2023-04-24T05:20:23;8.90;;;4.35;;
59824;SDS011;45703;50.898;6.054;2023-04-24T05:22:48;8.55;;;4.53;;
59824;SDS011;45703;50.898;6.054;2023-04-24T05:25:16;8.30;;;4.18;;
59824;SDS011;45703;50.898;6.054;2023-04-24T05:27:42;10.40;;;4.90;;
59824;SDS011;45703;50.898;6.054;2023-04-24T05:30:07;9.57;;;4.07;;
59824;SDS011;45703;50.898;6.054;2023-04-24T05:32:34;9.43;;;4.47;;
59824;SDS011;45703;50.898;6.054;2023-04-24T05:34:59;10.77;;;5.15;;
59824;SDS011;45703;50.898;6.054;2023-04-24T05:37:25;10.15;;;4.60;;
59824;SDS011;45703;50.898;6.054;2023-04-24T05:39:51;9.55;;;4.20;;
59824;SDS011;45703;50.898;6.054;2023-04-24T05:42:16;10.68;;;4.15;;
59824;SDS011;45703;50.898;6.054;2023-04-24T05:44:41;7.78;;;4.03;;
59824;SDS011;45703;50.898;6.054;2023-04-24T05:47:07;10.10;;;4.78;;
59824;SDS011;45703;50.898;6.054;2023-04-24T05:49:32;9.25;;;4.55;;
59824;SDS011;45703;50.898;6.054;2023-04-24T05:51:58;6.65;;;3.00;;
59824;SDS011;45703;50.898;6.054;2023-04-24T05:54:23;8.10;;;3.78;;
59824;SDS011;45703;50.898;6.054;2023-04-24T05:56:49;7.50;;;3.38;;
59824;SDS011;45703;50.898;6.054;2023-04-24T05:59:15;8.02;;;2.55;;
59824;SDS011;45703;50.898;6.054;2023-04-24T06:01:40;7.35;;;3.03;;
59824;SDS011;45703;50.898;6.054;2023-04-24T06:04:06;8.35;;;3.20;;
59824;SDS011;45703;50.898;6.054;2023-04-24T06:06:32;8.85;;;3.30;;
59824;SDS011;45703;50.898;6.054;2023-04-24T06:08:57;8.00;;;2.92;;
59824;SDS011;45703;50.898;6.054;2023-04-24T06:11:23;7.85;;;3.42;;
59824;SDS011;45703;50.898;6.054;2023-04-24T06:13:49;7.45;;;3.08;;
59824;SDS011;45703;50.898;6.054;2023-04-24T06:16:15;8.40;;;4.03;;
59824;SDS011;45703;50.898;6.054;2023-04-24T06:18:40;9.18;;;4.28;;
59824;SDS011;45703;50.898;6.054;2023-04-24T06:21:06;9.40;;;4.72;;
59824;SDS011;45703;50.898;6.054;2023-04-24T06:23:31;8.80;;;3.42;;
59824;SDS011;45703;50.898;6.054;2023-04-24T06:25:57;9.05;;;4.20;;
59824;SDS011;45703;50.898;6.054;2023-04-24T06:28:23;7.13;;;2.80;;
59824;SDS011;45703;50.898;6.054;2023-04-24T06:30:48;8.23;;;3.63;;
59824;SDS011;45703;50.898;6.054;2023-04-24T06:33:14;6.80;;;2.88;;
59824;SDS011;45703;50.898;6.054;2023-04-24T06:35:39;6.13;;;2.30;;
59824;SDS011;45703;50.898;6.054;2023-04-24T06:38:05;7.05;;;2.28;;
59824;SDS011;45703;50.898;6.054;2023-04-24T06:40:30;7.38;;;2.45;;
59824;SDS011;45703;50.898;6.054;2023-04-24T06:42:56;7.03;;;2.15;;
59824;SDS011;45703;50.898;6.054;2023-04-24T06:45:23;6.55;;;2.28;;
59824;SDS011;45703;50.898;6.054;2023-04-24T06:47:48;6.78;;;2.63;;
59824;SDS011;45703;50.898;6.054;2023-04-24T06:50:14;5.72;;;2.22;;
59824;SDS011;45703;50.898;6.054;2023-04-24T06:52:40;5.88;;;2.38;;
59824;SDS011;45703;50.898;6.054;2023-04-24T06:55:05;7.90;;;1.70;;
59824;SDS011;45703;50.898;6.054;2023-04-24T06:57:31;5.63;;;1.92;;
59824;SDS011;45703;50.898;6.054;2023-04-24T06:59:57;6.30;;;2.30;;
59824;SDS011;45703;50.898;6.054;2023-04-24T07:02:22;5.13;;;1.63;;
59824;SDS011;45703;50.898;6.054;2023-04-24T07:04:48;6.10;;;2.20;;
59824;SDS011;45703;50.898;6.054;2023-04-24T07:07:13;7.22;;;2.75;;
59824;SDS011;45703;50.898;6.054;2023-04-24T07:09:39;6.25;;;2.60;;
59824;SDS011;45703;50.898;6.054;2023-04-24T07:12:09;5.83;;;2.17;;
59824;SDS011;45703;50.898;6.054;2023-04-24T07:14:38;6.95;;;2.95;;
59824;SDS011;45703;50.898;6.054;2023-04-24T07:17:04;7.45;;;2.83;;
59824;SDS011;45703;50.898;6.054;2023-04-24T07:19:30;8.85;;;3.00;;
59824;SDS011;45703;50.898;6.054;2023-04-24T07:21:56;8.25;;;3.60;;
59824;SDS011;45703;50.898;6.054;2023-04-24T07:24:23;7.85;;;2.65;;
59824;SDS011;45703;50.898;6.054;2023-04-24T07:26:50;6.55;;;2.40;;
59824;SDS011;45703;50.898;6.054;2023-04-24T07:29:17;8.27;;;3.08;;
59824;SDS011;45703;50.898;6.054;2023-04-24T07:31:42;7.28;;;3.13;;
59824;SDS011;45703;50.898;6.054;2023-04-24T07:34:07;7.13;;;3.00;;
59824;SDS011;45703;50.898;6.054;2023-04-24T07:36:33;7.88;;;3.28;;
59824;SDS011;45703;50.898;6.054;2023-04-24T07:38:58;8.02;;;2.83;;
59824;SDS011;45703;50.898;6.054;2023-04-24T07:41:24;8.02;;;3.70;;
59824;SDS011;45703;50.898;6.054;2023-04-24T07:43:50;8.43;;;3.05;;
59824;SDS011;45703;50.898;6.054;2023-04-24T07:46:16;7.43;;;2.88;;
59824;SDS011;45703;50.898;6.054;2023-04-24T07:48:41;8.52;;;3.65;;
59824;SDS011;45703;50.898;6.054;2023-04-24T07:51:07;7.35;;;3.28;;
59824;SDS011;45703;50.898;6.054;2023-04-24T07:53:35;9.52;;;4.28;;
59824;SDS011;45703;50.898;6.054;2023-04-24T07:56:00;7.82;;;3.03;;
59824;SDS011;45703;50.898;6.054;2023-04-24T07:58:25;8.52;;;3.88;;
59824;SDS011;45703;50.898;6.054;2023-04-24T08:00:51;9.18;;;3.72;;
59824;SDS011;45703;50.898;6.054;2023-04-24T08:03:16;9.35;;;4.47;;
59824;SDS011;45703;50.898;6.054;2023-04-24T08:05:44;7.82;;;3.13;;
59824;SDS011;45703;50.898;6.054;2023-04-24T08:08:09;8.95;;;4.30;;
59824;SDS011;45703;50.898;6.054;2023-04-24T08:10:35;9.35;;;4.43;;
59824;SDS011;45703;50.898;6.054;2023-04-24T08:13:00;9.88;;;4.28;;
59824;SDS011;45703;50.898;6.054;2023-04-24T08:15:26;8.50;;;3.63;;
59824;SDS011;45703;50.898;6.054;2023-04-24T08:17:52;10.60;;;4.50;;
59824;SDS011;45703;50.898;6.054;2023-04-24T08:20:18;10.90;;;4.95;;
59824;SDS011;45703;50.898;6.054;2023-04-24T08:22:43;9.48;;;4.63;;
59824;SDS011;45703;50.898;6.054;2023-04-24T08:25:09;10.88;;;4.45;;
59824;SDS011;45703;50.898;6.054;2023-04-24T08:27:36;9.43;;;4.25;;
59824;SDS011;45703;50.898;6.054;2023-04-24T08:30:02;9.73;;;5.00;;
59824;SDS011;45703;50.898;6.054;2023-04-24T08:32:29;11.52;;;4.65;;
59824;SDS011;45703;50.898;6.054;2023-04-24T08:34:57;9.38;;;4.78;;
59824;SDS011;45703;50.898;6.054;2023-04-24T08:37:23;8.95;;;3.92;;
59824;SDS011;45703;50.898;6.054;2023-04-24T08:39:50;9.63;;;4.63;;
59824;SDS011;45703;50.898;6.054;2023-04-24T08:42:16;9.45;;;4.70;;
59824;SDS011;45703;50.898;6.054;2023-04-24T08:44:43;9.93;;;4.80;;
59824;SDS011;45703;50.898;6.054;2023-04-24T08:47:10;10.35;;;4.40;;
59824;SDS011;45703;50.898;6.054;2023-04-24T08:49:36;9.68;;;4.20;;
59824;SDS011;45703;50.898;6.054;2023-04-24T08:52:03;10.05;;;4.50;;
59824;SDS011;45703;50.898;6.054;2023-04-24T08:54:28;9.65;;;4.43;;
59824;SDS011;45703;50.898;6.054;2023-04-24T08:56:56;10.15;;;4.57;;
59824;SDS011;45703;50.898;6.054;2023-04-24T08:59:25;9.15;;;4.07;;
59824;SDS011;45703;50.898;6.054;2023-04-24T09:01:51;10.07;;;4.82;;
59824;SDS011;45703;50.898;6.054;2023-04-24T09:04:18;12.00;;;4.57;;
59824;SDS011;45703;50.898;6.054;2023-04-24T09:06:47;11.82;;;4.20;;
59824;SDS011;45703;50.898;6.054;2023-04-24T09:09:16;10.13;;;4.50;;
59824;SDS011;45703;50.898;6.054;2023-04-24T09:11:42;11.18;;;4.28;;
59824;SDS011;45703;50.898;6.054;2023-04-24T09:14:09;10.23;;;4.25;;
59824;SDS011;45703;50.898;6.054;2023-04-24T09:16:35;10.15;;;4.65;;
59824;SDS011;45703;50.898;6.054;2023-04-24T09:19:00;8.30;;;3.90;;
59824;SDS011;45703;50.898;6.054;2023-04-24T09:21:30;8.80;;;3.60;;
59824;SDS011;45703;50.898;6.054;2023-04-24T09:26:24;9.23;;;3.70;;
59824;SDS011;45703;50.898;6.054;2023-04-24T09:28:50;7.30;;;2.97;;
59824;SDS011;45703;50.898;6.054;2023-04-24T09:31:17;9.50;;;3.28;;
59824;SDS011;45703;50.898;6.054;2023-04-24T09:34:02;9.15;;;4.32;;
59824;SDS011;45703;50.898;6.054;2023-04-24T09:36:33;12.40;;;4.43;;
59824;SDS011;45703;50.898;6.054;2023-04-24T09:39:02;10.25;;;4.63;;
59824;SDS011;45703;50.898;6.054;2023-04-24T09:41:32;10.55;;;3.95;;
59824;SDS011;45703;50.898;6.054;2023-04-24T09:44:10;9.38;;;4.97;;
59824;SDS011;45703;50.898;6.054;2023-04-24T09:46:37;9.48;;;4.75;;
59824;SDS011;45703;50.898;6.054;2023-04-24T09:49:09;11.38;;;5.65;;
59824;SDS011;45703;50.898;6.054;2023-04-24T09:51:37;12.07;;;5.47;;
59824;SDS011;45703;50.898;6.054;2023-04-24T09:54:04;11.80;;;5.65;;
59824;SDS011;45703;50.898;6.054;2023-04-24T09:56:37;14.40;;;6.22;;
59824;SDS011;45703;50.898;6.054;2023-04-24T09:59:07;11.95;;;6.45;;
59824;SDS011;45703;50.898;6.054;2023-04-24T10:01:33;14.90;;;6.85;;
59824;SDS011;45703;50.898;6.054;2023-04-24T10:03:59;12.98;;;6.55;;
59824;SDS011;45703;50.898;6.054;2023-04-24T10:06:33;11.65;;;6.22;;
59824;SDS011;45703;50.898;6.054;2023-04-24T10:08:59;13.15;;;5.65;;
59824;SDS011;45703;50.898;6.054;2023-04-24T10:11:26;9.43;;;4.30;;
59824;SDS011;45703;50.898;6.054;2023-04-24T10:13:52;8.95;;;4.32;;
59824;SDS011;45703;50.898;6.054;2023-04-24T10:16:18;11.02;;;4.43;;
59824;SDS011;45703;50.898;6.054;2023-04-24T10:18:47;10.15;;;4.43;;
59824;SDS011;45703;50.898;6.054;2023-04-24T10:21:14;9.68;;;4.22;;
59824;SDS011;45703;50.898;6.054;2023-04-24T10:23:40;8.85;;;3.05;;
59824;SDS011;45703;50.898;6.054;2023-04-24T10:26:08;8.20;;;3.67;;
59824;SDS011;45703;50.898;6.054;2023-04-24T10:28:34;10.93;;;4.28;;
59824;SDS011;45703;50.898;6.054;2023-04-24T10:31:01;8.70;;;3.22;;
59824;SDS011;45703;50.898;6.054;2023-04-24T10:33:27;11.35;;;4.07;;
59824;SDS011;45703;50.898;6.054;2023-04-24T10:35:55;10.88;;;4.97;;
59824;SDS011;45703;50.898;6.054;2023-04-24T10:38:24;12.30;;;4.47;;
59824;SDS011;45703;50.898;6.054;2023-04-24T10:40:50;9.30;;;4.32;;
59824;SDS011;45703;50.898;6.054;2023-04-24T10:43:16;10.48;;;4.43;;
59824;SDS011;45703;50.898;6.054;2023-04-24T10:46:00;10.65;;;4.60;;
59824;SDS011;45703;50.898;6.054;2023-04-24T10:48:29;11.52;;;4.57;;
59824;SDS011;45703;50.898;6.054;2023-04-24T10:50:55;11.68;;;5.18;;
59824;SDS011;45703;50.898;6.054;2023-04-24T10:53:22;10.57;;;4.18;;
59824;SDS011;45703;50.898;6.054;2023-04-24T10:58:23;12.15;;;4.50;;
59824;SDS011;45703;50.898;6.054;2023-04-24T11:01:00;13.45;;;5.78;;
59824;SDS011;45703;50.898;6.054;2023-04-24T11:03:29;11.38;;;4.97;;
59824;SDS011;45703;50.898;6.054;2023-04-24T11:05:57;10.68;;;5.63;;
59824;SDS011;45703;50.898;6.054;2023-04-24T11:11:03;14.23;;;5.70;;
59824;SDS011;45703;50.898;6.054;2023-04-24T11:16:29;15.85;;;6.22;;
59824;SDS011;45703;50.898;6.054;2023-04-24T11:19:07;14.75;;;6.07;;
59824;SDS011;45703;50.898;6.054;2023-04-24T11:21:43;13.77;;;5.85;;
59824;SDS011;45703;50.898;6.054;2023-04-24T11:26:51;10.70;;;5.47;;
59824;SDS011;45703;50.898;6.054;2023-04-24T11:29:19;12.18;;;4.72;;
59824;SDS011;45703;50.898;6.054;2023-04-24T11:31:46;12.60;;;3.78;;
59824;SDS011;45703;50.898;6.054;2023-04-24T11:34:16;10.82;;;3.97;;
59824;SDS011;45703;50.898;6.054;2023-04-24T11:36:46;8.93;;;3.92;;
59824;SDS011;45703;50.898;6.054;2023-04-24T11:39:12;10.60;;;4.28;;
59824;SDS011;45703;50.898;6.054;2023-04-24T11:41:38;10.55;;;4.35;;
59824;SDS011;45703;50.898;6.054;2023-04-24T11:44:06;11.52;;;4.57;;
59824;SDS011;45703;50.898;6.054;2023-04-24T11:46:33;9.10;;;4.60;;
59824;SDS011;45703;50.898;6.054;2023-04-24T11:48:58;12.13;;;4.70;;
59824;SDS011;45703;50.898;6.054;2023-04-24T11:51:25;12.05;;;5.30;;
59824;SDS011;45703;50.898;6.054;2023-04-24T11:53:53;10.55;;;4.78;;
59824;SDS011;45703;50.898;6.054;2023-04-24T11:56:23;8.88;;;4.82;;
59824;SDS011;45703;50.898;6.054;2023-04-24T11:58:51;11.55;;;5.30;;
59824;SDS011;45703;50.898;6.054;2023-04-24T12:01:18;9.85;;;4.85;;
59824;SDS011;45703;50.898;6.054;2023-04-24T12:03:50;12.23;;;4.65;;
59824;SDS011;45703;50.898;6.054;2023-04-24T12:06:24;8.88;;;4.65;;
59824;SDS011;45703;50.898;6.054;2023-04-24T12:08:50;9.77;;;5.05;;
59824;SDS011;45703;50.898;6.054;2023-04-24T12:11:19;12.15;;;5.00;;
59824;SDS011;45703;50.898;6.054;2023-04-24T12:13:45;11.50;;;5.30;;
59824;SDS011;45703;50.898;6.054;2023-04-24T12:16:10;13.65;;;5.43;;
59824;SDS011;45703;50.898;6.054;2023-04-24T12:18:41;12.48;;;5.30;;
59824;SDS011;45703;50.898;6.054;2023-04-24T12:21:17;12.15;;;5.15;;
59824;SDS011;45703;50.898;6.054;2023-04-24T12:23:44;13.20;;;5.45;;
59824;SDS011;45703;50.898;6.054;2023-04-24T12:26:16;13.25;;;5.88;;
59824;SDS011;45703;50.898;6.054;2023-04-24T12:28:45;13.00;;;5.55;;
59824;SDS011;45703;50.898;6.054;2023-04-24T12:31:14;14.98;;;6.13;;
59824;SDS011;45703;50.898;6.054;2023-04-24T12:33:42;13.23;;;5.65;;
59824;SDS011;45703;50.898;6.054;2023-04-24T12:36:11;11.27;;;5.60;;
59824;SDS011;45703;50.898;6.054;2023-04-24T12:38:38;13.85;;;5.63;;
59824;SDS011;45703;50.898;6.054;2023-04-24T12:41:09;11.98;;;5.80;;
59824;SDS011;45703;50.898;6.054;2023-04-24T12:43:37;14.43;;;6.15;;
59824;SDS011;45703;50.898;6.054;2023-04-24T12:46:02;13.13;;;5.38;;
59824;SDS011;45703;50.898;6.054;2023-04-24T12:48:29;11.27;;;5.20;;
59824;SDS011;45703;50.898;6.054;2023-04-24T12:50:58;11.82;;;5.30;;
59824;SDS011;45703;50.898;6.054;2023-04-24T12:53:26;11.45;;;5.60;;
59824;SDS011;45703;50.898;6.054;2023-04-24T12:55:54;12.45;;;5.88;;
59824;SDS011;45703;50.898;6.054;2023-04-24T12:58:20;10.43;;;5.10;;
59824;SDS011;45703;50.898;6.054;2023-04-24T13:00:45;12.20;;;5.47;;
59824;SDS011;45703;50.898;6.054;2023-04-24T13:03:11;10.43;;;5.13;;
59824;SDS011;45703;50.898;6.054;2023-04-24T13:05:37;9.68;;;4.78;;
59824;SDS011;45703;50.898;6.054;2023-04-24T13:08:03;11.45;;;5.72;;
59824;SDS011;45703;50.898;6.054;2023-04-24T13:10:29;10.13;;;5.32;;
59824;SDS011;45703;50.898;6.054;2023-04-24T13:12:54;10.65;;;4.47;;
59824;SDS011;45703;50.898;6.054;2023-04-24T13:15:20;10.77;;;4.60;;
59824;SDS011;45703;50.898;6.054;2023-04-24T13:17:45;10.05;;;4.97;;
59824;SDS011;45703;50.898;6.054;2023-04-24T13:20:11;11.30;;;5.88;;
59824;SDS011;45703;50.898;6.054;2023-04-24T13:22:36;8.55;;;4.13;;
59824;SDS011;45703;50.898;6.054;2023-04-24T13:25:02;9.15;;;4.50;;
59824;SDS011;45703;50.898;6.054;2023-04-24T13:27:28;10.75;;;4.38;;
59824;SDS011;45703;50.898;6.054;2023-04-24T13:29:53;9.00;;;4.40;;
59824;SDS011;45703;50.898;6.054;2023-04-24T13:32:19;9.30;;;4.38;;
59824;SDS011;45703;50.898;6.054;2023-04-24T13:34:44;8.85;;;3.58;;
59824;SDS011;45703;50.898;6.054;2023-04-24T13:37:11;12.20;;;4.25;;
59824;SDS011;45703;50.898;6.054;2023-04-24T13:39:36;8.77;;;3.40;;
59824;SDS011;45703;50.898;6.054;2023-04-24T13:42:02;10.43;;;3.78;;
59824;SDS011;45703;50.898;6.054;2023-04-24T13:44:28;9.35;;;3.80;;
59824;SDS011;45703;50.898;6.054;2023-04-24T13:46:53;11.30;;;4.35;;
59824;SDS011;45703;50.898;6.054;2023-04-24T13:49:21;10.38;;;3.65;;
59824;SDS011;45703;50.898;6.054;2023-04-24T13:51:49;10.30;;;3.65;;
59824;SDS011;45703;50.898;6.054;2023-04-24T13:54:15;9.57;;;3.90;;
59824;SDS011;45703;50.898;6.054;2023-04-24T13:56:41;9.13;;;3.83;;
59824;SDS011;45703;50.898;6.054;2023-04-24T13:59:06;7.75;;;3.45;;
59824;SDS011;45703;50.898;6.054;2023-04-24T14:01:32;9.52;;;4.13;;
59824;SDS011;45703;50.898;6.054;2023-04-24T14:03:57;9.00;;;3.65;;
59824;SDS011;45703;50.898;6.054;2023-04-24T14:06:23;10.07;;;4.07;;
59824;SDS011;45703;50.898;6.054;2023-04-24T14:08:48;7.70;;;3.38;;
59824;SDS011;45703;50.898;6.054;2023-04-24T14:11:15;7.82;;;3.70;;
59824;SDS011;45703;50.898;6.054;2023-04-24T14:13:41;9.43;;;3.72;;
59824;SDS011;45703;50.898;6.054;2023-04-24T14:16:07;10.05;;;4.20;;
59824;SDS011;45703;50.898;6.054;2023-04-24T14:18:33;10.07;;;3.60;;
59824;SDS011;45703;50.898;6.054;2023-04-24T14:20:59;9.85;;;4.28;;
59824;SDS011;45703;50.898;6.054;2023-04-24T14:23:26;8.75;;;3.88;;
59824;SDS011;45703;50.898;6.054;2023-04-24T14:25:51;8.35;;;3.83;;
59824;SDS011;45703;50.898;6.054;2023-04-24T14:28:18;10.75;;;4.07;;
59824;SDS011;45703;50.898;6.054;2023-04-24T14:30:45;10.27;;;4.30;;
59824;SDS011;45703;50.898;6.054;2023-04-24T14:33:11;8.32;;;3.85;;
59824;SDS011;45703;50.898;6.054;2023-04-24T14:35:37;10.18;;;3.85;;
59824;SDS011;45703;50.898;6.054;2023-04-24T14:38:03;9.95;;;4.00;;
59824;SDS011;45703;50.898;6.054;2023-04-24T14:40:29;8.57;;;4.00;;
59824;SDS011;45703;50.898;6.054;2023-04-24T14:42:56;9.27;;;3.55;;
59824;SDS011;45703;50.898;6.054;2023-04-24T14:45:23;8.90;;;3.03;;
59824;SDS011;45703;50.898;6.054;2023-04-24T14:47:48;8.05;;;4.07;;
59824;SDS011;45703;50.898;6.054;2023-04-24T14:50:13;10.10;;;3.92;;